createdAt,value
2017-12-07T00:07:52.000Z,34.4
2017-12-07T00:17:52.000Z,34.8
2017-12-07T00:27:52.000Z,34.6
2017-12-07T00:37:52.000Z,34.7
2017-12-07T00:47:52.000Z,34.1
2017-12-07T00:57:52.000Z,34.1
2017-12-07T01:07:52.000Z,34.4
2017-12-07T01:17:52.000Z,34.1
2017-12-07T01:27:52.000Z,36.3
2017-12-07T01:37:52.000Z,34.3
2017-12-07T01:47:52.000Z,33.9
2017-12-07T01:57:52.000Z,34
2017-12-07T02:07:52.000Z,33.8
2017-12-07T02:17:52.000Z,34.1
2017-12-07T02:27:52.000Z,33.9
2017-12-07T02:37:52.000Z,34.2
2017-12-07T02:47:52.000Z,34.1
2017-12-07T02:57:52.000Z,34
2017-12-07T03:07:52.000Z,33.7
2017-12-07T03:17:52.000Z,33.7
2017-12-07T03:27:52.000Z,33.7
2017-12-07T03:37:52.000Z,33.3
2017-12-07T03:47:52.000Z,32.7
2017-12-07T03:57:52.000Z,32.8
2017-12-07T04:07:52.000Z,33.1
2017-12-07T04:17:52.000Z,33.3
2017-12-07T04:27:52.000Z,32.8
2017-12-07T04:37:54.000Z,32.7
2017-12-07T04:47:52.000Z,32.8
2017-12-07T04:57:52.000Z,33.2
2017-12-07T05:07:52.000Z,32.8
2017-12-07T05:17:52.000Z,33.1
2017-12-07T05:27:52.000Z,33.6
2017-12-07T05:37:52.000Z,33.4
2017-12-07T05:47:52.000Z,33.7
2017-12-07T05:57:52.000Z,33.8
2017-12-07T06:07:52.000Z,33.7
2017-12-07T06:17:52.000Z,34.1
2017-12-07T06:27:52.000Z,40.8
2017-12-07T06:37:52.000Z,44
2017-12-07T06:47:52.000Z,45.1
2017-12-07T06:57:52.000Z,46.8
2017-12-07T07:07:53.000Z,47.6
2017-12-07T07:17:53.000Z,47.4
2017-12-07T07:27:53.000Z,48
2017-12-07T07:37:53.000Z,48.8
2017-12-07T07:47:53.000Z,48
2017-12-07T07:57:53.000Z,46.1
2017-12-07T08:07:53.000Z,48
2017-12-07T08:17:53.000Z,48.9
2017-12-07T08:27:53.000Z,48.3
2017-12-07T08:37:53.000Z,48.9
2017-12-07T08:47:55.000Z,48.3
2017-12-07T08:57:53.000Z,48.9
2017-12-07T09:07:53.000Z,48.7
2017-12-07T09:17:53.000Z,49.2
2017-12-07T09:27:53.000Z,48.2
2017-12-07T09:37:53.000Z,48.1
2017-12-07T09:47:53.000Z,47.6
2017-12-07T09:57:53.000Z,48.8
2017-12-07T10:07:53.000Z,49.1
2017-12-07T10:17:53.000Z,49
2017-12-07T10:27:53.000Z,49.3
2017-12-07T10:37:53.000Z,48.8
2017-12-07T10:47:53.000Z,49.7
2017-12-07T10:57:53.000Z,50.7
2017-12-07T11:07:53.000Z,48.5
2017-12-07T11:17:53.000Z,48.6
2017-12-07T11:27:53.000Z,50
2017-12-07T11:37:53.000Z,49.5
2017-12-07T11:47:53.000Z,49.3
2017-12-07T11:57:53.000Z,49.2
2017-12-07T12:07:53.000Z,48.5
2017-12-07T12:17:53.000Z,48.7
2017-12-07T12:27:53.000Z,48.7
2017-12-07T12:37:53.000Z,48.6
2017-12-07T12:47:53.000Z,48.3
2017-12-07T12:57:53.000Z,48.8
2017-12-07T13:07:53.000Z,48.7
2017-12-07T13:17:53.000Z,48.7
2017-12-07T13:27:53.000Z,48.8
2017-12-07T13:37:55.000Z,47.9
2017-12-07T13:47:53.000Z,48
2017-12-07T13:57:53.000Z,48.5
2017-12-07T14:07:54.000Z,48.2
2017-12-07T14:17:54.000Z,48.4
2017-12-07T14:27:54.000Z,49.1
2017-12-07T14:37:58.000Z,49
2017-12-07T14:47:54.000Z,49
2017-12-07T14:57:54.000Z,48.8
2017-12-07T15:07:54.000Z,48.2
2017-12-07T15:17:54.000Z,49.2
2017-12-07T15:27:54.000Z,49.2
2017-12-07T15:37:54.000Z,48.9
2017-12-07T15:47:54.000Z,48.8
2017-12-07T15:57:54.000Z,48.3
2017-12-07T16:07:54.000Z,49
2017-12-07T16:17:54.000Z,49.4
2017-12-07T16:27:54.000Z,49.4
2017-12-07T16:37:54.000Z,49.4
2017-12-07T16:47:54.000Z,49.2
2017-12-07T16:57:54.000Z,49.1
2017-12-07T17:07:56.000Z,50.1
2017-12-07T17:17:54.000Z,50.8
2017-12-07T17:27:54.000Z,51.3
2017-12-07T17:37:54.000Z,51
2017-12-07T17:47:54.000Z,50.5
2017-12-07T17:57:54.000Z,50.5
2017-12-07T18:07:54.000Z,50.7
2017-12-07T18:17:54.000Z,50.5
2017-12-07T18:27:54.000Z,50.5
2017-12-07T18:37:54.000Z,50.6
2017-12-07T18:47:54.000Z,50.5
2017-12-07T18:57:54.000Z,50.7
2017-12-07T19:07:54.000Z,50.6
2017-12-07T19:17:54.000Z,50.6
2017-12-07T19:27:54.000Z,50.6
2017-12-07T19:37:54.000Z,50.6
2017-12-07T19:47:54.000Z,50.6
2017-12-07T19:57:54.000Z,50.6
2017-12-07T20:07:54.000Z,50.6
2017-12-07T20:17:54.000Z,50.5
2017-12-07T20:27:55.000Z,50.9
2017-12-07T20:37:54.000Z,50.7
2017-12-07T20:47:58.000Z,50.4
2017-12-07T20:57:55.000Z,50.8
2017-12-07T21:07:55.000Z,48.6
2017-12-07T21:17:55.000Z,49.8
2017-12-07T21:27:55.000Z,50.9
2017-12-07T21:37:55.000Z,52.5
2017-12-07T21:47:55.000Z,53.3
2017-12-07T21:57:55.000Z,53.8
2017-12-07T22:07:55.000Z,54.1
2017-12-07T22:17:55.000Z,54
2017-12-07T22:27:55.000Z,54.1
2017-12-07T22:37:55.000Z,49.9
2017-12-07T22:47:55.000Z,43.9
2017-12-07T22:57:55.000Z,43.2
2017-12-07T23:07:55.000Z,43.2
2017-12-07T23:17:55.000Z,43.2
2017-12-07T23:27:55.000Z,43.2
2017-12-07T23:37:55.000Z,43.2
2017-12-07T23:47:55.000Z,43.6
2017-12-07T23:57:55.000Z,43.1
